Home   Weather   USA   Chico   Past weeks
Flag for USA

Past Weather in Chico, California, USA — Yesterday and Last 2 Weeks

Currently: 84 °F. Partly sunny. (Weather station: Chico Municipal, USA). See more current weather

Past Weather in Chico — Graph

°F

Chico Temperature Yesterday

Maximum temperature yesterday: 99 °F (at 2:47 pm)
Minimum temperature yesterday: 73 °F (at 2:55 am)
Average temperature yesterday: 83 °F

High & Low Weather Summary for the Past Weeks

 TemperatureHumidityPressure
High106 °F (Jul 11, 3:56 pm)68% (Jul 14, 5:35 am)29.99 "Hg (Jul 14, 5:35 am)
Low64 °F (Jul 14, 5:35 am)7% (Jul 23, 4:50 pm)29.70 "Hg (Jul 11, 5:55 pm)
Average81 °F31%29.87 "Hg
* Reported Jul 11 11:50 am — Jul 26 11:47 am, Chico. Weather by CustomWeather, © 2021

Note: Actual official high and low records may vary slightly from our data, if they occured in-between our weather recording intervals... More about our weather records

Chico Weather History for the Previous 24 Hours

Scroll right to see more
 ConditionsComfort  
Time TempWeatherWind HumidityBarometerVisibility
11:47 am
Mon, Jul 26
84 °FPartly sunny.6 mph25%29.86 "Hg25 mi
10:47 am82 °FPartly sunny.7 mph26%29.86 "Hg25 mi
9:47 am79 °FPartly sunny.16 mph30%29.88 "Hg25 mi
8:47 am75 °FBroken clouds.9 mph34%29.87 "Hg25 mi
7:47 am73 °FBroken clouds.9 mph33%29.86 "Hg25 mi
6:47 am73 °FBroken clouds.9 mph31%29.85 "Hg25 mi
6:15 am73 °FSunny.7 mph29%29.83 "Hg10 mi
5:55 am75 °FClear.6 mph29%29.83 "Hg10 mi
5:35 am75 °FClear.8 mph29%29.83 "Hg10 mi
4:55 am77 °FClear.9 mph30%29.82 "Hg10 mi
4:35 am77 °FPassing clouds.8 mph32%29.81 "Hg10 mi
4:15 am77 °FPassing clouds.3 mph34%29.81 "Hg10 mi
3:55 am77 °FPartly cloudy.6 mph34%29.81 "Hg10 mi
3:35 am79 °FPassing clouds.8 mph30%29.81 "Hg10 mi
3:15 am81 °FClear.No wind30%29.81 "Hg10 mi
2:55 am79 °FClear.No wind32%29.81 "Hg10 mi
2:35 am81 °FClear.No wind30%29.80 "Hg10 mi
2:15 am81 °FClear.6 mph30%29.80 "Hg10 mi
1:55 am81 °FClear.8 mph30%29.79 "Hg10 mi
1:35 am81 °FClear.7 mph30%29.79 "Hg10 mi
1:15 am82 °FClear.7 mph30%29.79 "Hg10 mi
12:55 am84 °FClear.7 mph27%29.80 "Hg10 mi
12:35 am84 °FClear.12 mph27%29.80 "Hg10 mi
11:55 pm
Sun, Jul 25
86 °FClear.7 mph27%29.79 "Hg10 mi
11:15 pm90 °FClear.6 mph24%29.79 "Hg10 mi
10:55 pm88 °FClear.5 mph25%29.79 "Hg10 mi
10:35 pm90 °FClear.7 mph26%29.79 "Hg10 mi
10:15 pm91 °FClear.7 mph26%29.79 "Hg10 mi
9:55 pm91 °FClear.7 mph28%29.79 "Hg10 mi
9:35 pm91 °FClear.9 mph28%29.78 "Hg10 mi
8:55 pm93 °FClear.8 mph28%29.77 "Hg10 mi
8:35 pm93 °FClear.9 mph28%29.77 "Hg10 mi
8:15 pm95 °FSunny.9 mph26%29.77 "Hg10 mi
7:00 pm99 °FPartly sunny.10 mph24%29.76 "Hg10 mi
5:52 pm99 °FPartly sunny.12 mph22%29.77 "Hg10 mi
4:50 pm99 °FPartly sunny.12 mph19%29.78 "Hg10 mi
3:55 pm99 °FPartly sunny.12 mph16%29.78 "Hg10 mi
2:47 pm99 °FScattered clouds.6 mph17%29.81 "Hg10 mi
1:47 pm93 °FPartly sunny.10 mph23%29.84 "Hg10 mi
Weather by CustomWeather, © 2021

See weather overview